This is the latest recevied weather packets stored in our database for station/object N9CQS-13. If no packets are shown the sender has not sent any weather packets the latest 10 day(s).
| Time | Temp. | Humidity | Pressure | Rain* | Wind** | Luminosity | Snow |
|---|---|---|---|---|---|---|---|
| 1777786892 | 6.67° C | 61% | 1019.8 hPa | 0 mm | - | - | - |
| 1777786292 | 6.67° C | 61% | 1019.8 hPa | 0 mm | - | - | - |
| 1777785693 | 6.67° C | 62% | 1019.8 hPa | 0 mm | - | - | - |
| 1777785091 | 6.67° C | 62% | 1019.8 hPa | 0 mm | - | - | - |
| 1777784492 | 6.67° C | 61% | 1019.8 hPa | 0 mm | - | - | - |
| 1777783892 | 6.67° C | 60% | 1019.8 hPa | 0 mm | - | - | - |
| 1777783292 | 7.22° C | 59% | 1019.8 hPa | 0 mm | - | - | - |
| 1777782692 | 7.22° C | 59% | 1019.8 hPa | 0 mm | - | - | - |
| 1777782092 | 7.22° C | 58% | 1019.7 hPa | 0 mm | - | - | - |
| 1777781491 | 7.22° C | 58% | 1019.7 hPa | 0 mm | - | - | - |
| 1777780891 | 7.22° C | 57% | 1019.8 hPa | 0 mm | - | - | - |
| 1777780291 | 7.22° C | 58% | 1019.9 hPa | 0 mm | - | - | - |
| 1777779691 | 7.22° C | 59% | 1020 hPa | 0 mm | - | - | - |
| 1777779092 | 7.22° C | 56% | 1020 hPa | 0 mm | - | - | - |
| 1777778492 | 6.67° C | 59% | 1020.1 hPa | 0 mm | - | - | - |
| 1777777892 | 7.22° C | 59% | 1020.1 hPa | 0 mm | - | - | - |
| 1777777291 | 7.22° C | 59% | 1020 hPa | 0 mm | - | - | - |
| 1777776691 | 7.22° C | 59% | 1020 hPa | 0 mm | - | - | - |
| 1777776092 | 7.22° C | 58% | 1019.8 hPa | 0 mm | - | - | - |
| 1777775492 | 7.22° C | 59% | 1019.8 hPa | 0 mm | - | - | - |
| 1777774891 | 7.78° C | 57% | 1019.7 hPa | 0 mm | - | - | - |
| 1777774291 | 7.78° C | 56% | 1019.7 hPa | 0 mm | - | - | - |
| 1777773692 | 8.33° C | 56% | 1019.6 hPa | 0 mm | - | - | - |
| 1777773091 | 8.33° C | 54% | 1019.4 hPa | 0 mm | - | - | - |
| 1777772491 | 8.33° C | 55% | 1019.4 hPa | 0 mm | - | - | - |
* Rain latest hour (hover to see other rain measurements)
** Current wind speed in m/s (hover to see current wind gust speed)